createdAt,value
2022-09-17T00:01:08.553Z,68.05
2022-09-17T00:03:35.980Z,68.08
2022-09-17T00:06:08.698Z,68.21
2022-09-17T00:08:37.428Z,68.00
2022-09-17T00:11:12.550Z,67.41
2022-09-17T00:13:39.451Z,67.88
2022-09-17T00:16:06.281Z,67.80
2022-09-17T00:18:33.121Z,67.69
2022-09-17T00:20:59.684Z,67.87
2022-09-17T00:23:26.187Z,67.90
2022-09-17T00:25:52.721Z,67.92
2022-09-17T00:28:19.223Z,67.89
2022-09-17T00:30:46.153Z,67.89
2022-09-17T00:33:15.110Z,67.61
2022-09-17T00:35:42.037Z,67.58
2022-09-17T00:38:09.501Z,67.22
2022-09-17T00:40:36.575Z,66.71
2022-09-17T00:43:04.764Z,66.39
2022-09-17T00:45:31.560Z,65.88
2022-09-17T00:48:00.746Z,66.18
2022-09-17T00:50:34.910Z,65.57
2022-09-17T00:53:07.200Z,65.14
2022-09-17T00:55:38.746Z,64.63
2022-09-17T00:58:08.218Z,65.60
2022-09-17T01:00:34.879Z,65.77
2022-09-17T01:03:01.434Z,65.90
2022-09-17T01:05:32.322Z,65.24
2022-09-17T01:08:21.340Z,62.47
2022-09-17T01:11:10.983Z,63.80
2022-09-17T01:13:43.337Z,64.79
2022-09-17T01:16:20.058Z,63.41
2022-09-17T01:19:08.442Z,63.99
2022-09-17T01:22:13.449Z,64.14
2022-09-17T01:25:03.186Z,63.93
2022-09-17T01:27:58.314Z,63.90
2022-09-17T01:30:52.721Z,64.84
2022-09-17T01:33:51.932Z,64.03
2022-09-17T01:37:07.995Z,63.66
2022-09-17T01:39:50.028Z,63.81
2022-09-17T01:42:37.785Z,63.77
2022-09-17T01:45:13.555Z,64.00
2022-09-17T01:47:47.839Z,64.09
2022-09-17T01:50:26.018Z,63.91
2022-09-17T01:52:55.603Z,64.73
2022-09-17T01:55:27.095Z,64.45
2022-09-17T01:58:04.271Z,64.35
2022-09-17T02:00:31.243Z,65.13
2022-09-17T02:03:05.564Z,64.69
2022-09-17T02:05:41.922Z,64.70
2022-09-17T02:08:17.034Z,64.90
2022-09-17T02:10:48.331Z,64.87
2022-09-17T02:13:22.748Z,65.08
2022-09-17T02:15:56.397Z,65.20
2022-09-17T02:18:28.348Z,65.03
2022-09-17T02:21:11.342Z,65.18
2022-09-17T02:23:47.736Z,65.45
2022-09-17T02:26:20.552Z,65.56
2022-09-17T02:29:07.067Z,65.68
2022-09-17T02:31:33.731Z,66.50
2022-09-17T02:34:02.986Z,66.36
2022-09-17T02:36:30.556Z,66.45
2022-09-17T02:39:02.394Z,66.06
2022-09-17T02:41:37.409Z,65.90
2022-09-17T02:44:36.482Z,65.05
2022-09-17T02:47:12.267Z,65.23
2022-09-17T02:50:00.062Z,65.06
2022-09-17T02:53:03.738Z,64.80
2022-09-17T02:55:30.141Z,65.12
2022-09-17T02:58:16.537Z,64.72
2022-09-17T03:00:44.967Z,64.47
2022-09-17T03:03:29.480Z,63.85
2022-09-17T03:05:56.199Z,64.53
2022-09-17T03:08:39.244Z,64.03
2022-09-17T03:11:06.799Z,64.20
2022-09-17T03:13:33.279Z,64.12
2022-09-17T03:15:59.933Z,64.13
2022-09-17T03:18:26.408Z,63.77
2022-09-17T03:20:52.930Z,63.69
2022-09-17T03:23:19.448Z,63.10
2022-09-17T03:25:46.829Z,63.36
2022-09-17T03:28:13.338Z,63.31
2022-09-17T03:30:39.779Z,63.01
2022-09-17T03:33:06.321Z,63.25
2022-09-17T03:35:32.834Z,63.67
2022-09-17T03:37:59.348Z,63.45
2022-09-17T03:40:26.023Z,63.50
2022-09-17T03:42:52.618Z,63.61
2022-09-17T03:45:19.085Z,63.72
2022-09-17T03:47:45.659Z,63.93
2022-09-17T03:50:12.191Z,63.84
2022-09-17T03:52:38.654Z,63.79
2022-09-17T03:55:05.728Z,63.80
2022-09-17T03:57:32.270Z,63.62
2022-09-17T03:59:58.920Z,63.79
2022-09-17T04:02:25.571Z,63.88
2022-09-17T04:04:52.149Z,64.09
2022-09-17T04:07:18.606Z,64.03
2022-09-17T04:09:45.099Z,64.12
2022-09-17T04:12:11.644Z,64.33
2022-09-17T04:14:38.232Z,64.38
2022-09-17T04:17:04.811Z,64.50
2022-09-17T04:19:31.296Z,64.42
2022-09-17T04:21:57.977Z,64.22
2022-09-17T04:24:27.154Z,64.38
2022-09-17T04:26:53.783Z,64.42
2022-09-17T04:29:20.225Z,64.53
2022-09-17T04:31:46.813Z,64.78
2022-09-17T04:34:13.371Z,64.93
2022-09-17T04:36:39.923Z,64.96
2022-09-17T04:39:06.546Z,64.72
2022-09-17T04:41:33.042Z,64.75
2022-09-17T04:43:59.738Z,64.66
2022-09-17T04:46:26.365Z,64.64
2022-09-17T04:48:52.823Z,64.60
2022-09-17T04:51:19.438Z,64.54
2022-09-17T04:53:45.944Z,64.43
2022-09-17T04:56:12.407Z,64.41
2022-09-17T04:58:38.924Z,64.53
2022-09-17T05:01:05.801Z,64.32
2022-09-17T05:03:32.352Z,64.59
2022-09-17T05:05:58.836Z,64.55
2022-09-17T05:08:25.318Z,64.64
2022-09-17T05:10:51.887Z,64.64
2022-09-17T05:13:18.415Z,64.67
2022-09-17T05:15:45.085Z,64.79
2022-09-17T05:18:14.466Z,64.68
2022-09-17T05:20:40.952Z,64.54
2022-09-17T05:23:07.523Z,64.42
2022-09-17T05:25:34.201Z,64.51
2022-09-17T05:28:01.147Z,64.49
2022-09-17T05:30:27.697Z,64.74
2022-09-17T05:33:02.038Z,63.96
2022-09-17T05:35:29.758Z,64.78
2022-09-17T05:38:00.675Z,64.80
2022-09-17T05:40:28.239Z,64.83
2022-09-17T05:42:59.060Z,64.57
2022-09-17T05:45:26.060Z,64.81
2022-09-17T05:48:00.477Z,64.13
2022-09-17T05:50:28.886Z,64.85
2022-09-17T05:52:55.907Z,64.90
2022-09-17T05:55:23.771Z,64.99
2022-09-17T05:57:51.028Z,64.98
2022-09-17T06:00:18.238Z,64.92
2022-09-17T06:02:44.900Z,64.49
2022-09-17T06:05:11.615Z,64.28
2022-09-17T06:07:38.997Z,64.14
2022-09-17T06:10:06.700Z,64.00
2022-09-17T06:12:33.172Z,63.99
2022-09-17T06:14:59.680Z,63.60
2022-09-17T06:17:26.132Z,63.30
2022-09-17T06:19:52.644Z,63.35
2022-09-17T06:22:19.852Z,63.69
2022-09-17T06:24:46.587Z,63.51
2022-09-17T06:27:13.094Z,63.32
2022-09-17T06:29:39.998Z,63.50
2022-09-17T06:32:08.731Z,63.54
2022-09-17T06:34:35.181Z,63.75
2022-09-17T06:37:01.659Z,63.77
2022-09-17T06:39:28.315Z,63.83
2022-09-17T06:41:54.819Z,63.83
2022-09-17T06:44:21.262Z,63.93
2022-09-17T06:46:50.103Z,63.68
2022-09-17T06:49:17.398Z,64.27
2022-09-17T06:51:44.567Z,64.22
2022-09-17T06:54:11.444Z,63.97
2022-09-17T06:56:37.924Z,64.08
2022-09-17T06:59:04.736Z,64.02
2022-09-17T07:01:31.300Z,63.77
2022-09-17T07:03:58.213Z,63.36
2022-09-17T07:06:24.737Z,63.19
2022-09-17T07:08:51.208Z,63.16
2022-09-17T07:11:17.754Z,62.99
2022-09-17T07:13:44.276Z,62.54
2022-09-17T07:16:10.895Z,62.49
2022-09-17T07:18:37.467Z,62.28
2022-09-17T07:21:05.837Z,62.13
2022-09-17T07:23:34.982Z,61.88
2022-09-17T07:26:05.587Z,61.40
2022-09-17T07:28:32.303Z,61.14
2022-09-17T07:31:02.353Z,61.42
2022-09-17T07:33:28.878Z,60.70
2022-09-17T07:35:58.195Z,60.86
2022-09-17T07:38:26.091Z,60.41
2022-09-17T07:41:04.559Z,59.92
2022-09-17T07:43:34.124Z,60.34
2022-09-17T07:46:03.143Z,60.69
2022-09-17T07:48:30.499Z,60.57
2022-09-17T07:50:57.547Z,60.91
2022-09-17T07:53:24.742Z,60.90
2022-09-17T07:55:59.305Z,59.91
2022-09-17T07:58:43.807Z,60.81
2022-09-17T08:01:12.429Z,61.01
2022-09-17T08:03:40.039Z,60.77
2022-09-17T08:06:09.080Z,60.21
2022-09-17T08:08:36.946Z,59.68
2022-09-17T08:11:08.631Z,59.72
2022-09-17T08:13:35.194Z,59.71
2022-09-17T08:16:04.890Z,58.92
2022-09-17T08:18:31.944Z,59.33
2022-09-17T08:21:00.044Z,59.34
2022-09-17T08:23:27.116Z,59.52
2022-09-17T08:25:55.456Z,58.87
2022-09-17T08:28:25.945Z,58.10
2022-09-17T08:30:53.537Z,58.69
2022-09-17T08:33:21.150Z,59.08
2022-09-17T08:35:55.352Z,58.30
2022-09-17T08:38:22.063Z,58.74
2022-09-17T08:41:07.260Z,57.42
2022-09-17T08:43:41.135Z,57.65
2022-09-17T08:46:11.022Z,56.18
2022-09-17T08:48:43.275Z,56.94
2022-09-17T08:51:22.784Z,56.28
2022-09-17T08:54:02.640Z,55.50
2022-09-17T08:56:33.952Z,55.29
2022-09-17T08:59:11.433Z,54.80
2022-09-17T09:01:45.559Z,55.33
2022-09-17T09:04:23.968Z,56.01
2022-09-17T09:06:55.586Z,56.57
2022-09-17T09:09:28.403Z,55.36
2022-09-17T09:12:03.364Z,54.90
2022-09-17T09:14:44.616Z,53.75
2022-09-17T09:17:11.421Z,55.94
2022-09-17T09:19:43.893Z,55.28
2022-09-17T09:22:33.915Z,55.06
2022-09-17T09:25:20.444Z,55.69
2022-09-17T09:28:08.447Z,53.39
2022-09-17T09:30:55.341Z,54.78
2022-09-17T09:33:30.104Z,54.94
2022-09-17T09:35:56.774Z,55.03
2022-09-17T09:38:32.651Z,55.27
2022-09-17T09:41:19.380Z,55.24
2022-09-17T09:44:12.652Z,56.41
2022-09-17T09:46:52.170Z,53.19
2022-09-17T09:49:55.795Z,54.43
2022-09-17T09:52:31.303Z,53.46
2022-09-17T09:55:17.315Z,54.21
2022-09-17T09:57:49.660Z,54.88
2022-09-17T10:00:31.555Z,55.60
2022-09-17T10:03:10.354Z,56.53
2022-09-17T10:05:36.919Z,56.75
2022-09-17T10:08:14.383Z,57.15
2022-09-17T10:11:20.194Z,57.72
2022-09-17T10:13:46.685Z,57.86
2022-09-17T10:16:16.333Z,58.74
2022-09-17T10:18:43.013Z,58.71
2022-09-17T10:21:38.800Z,59.65
2022-09-17T10:24:21.332Z,59.78
2022-09-17T10:26:48.011Z,60.27
2022-09-17T10:29:18.343Z,60.28
2022-09-17T10:31:52.820Z,60.63
2022-09-17T10:34:27.888Z,60.98
2022-09-17T10:36:55.283Z,60.92
2022-09-17T10:39:35.311Z,62.11
2022-09-17T10:42:03.256Z,61.79
2022-09-17T10:44:32.063Z,62.25
2022-09-17T10:47:10.949Z,62.71
2022-09-17T10:49:41.360Z,62.72
2022-09-17T10:52:18.167Z,63.27
2022-09-17T10:55:01.740Z,63.70
2022-09-17T10:57:51.289Z,64.41
2022-09-17T11:00:20.576Z,64.42
2022-09-17T11:03:34.921Z,64.35
2022-09-17T11:06:36.735Z,63.90
2022-09-17T11:09:29.666Z,63.07
2022-09-17T11:12:02.296Z,63.12
2022-09-17T11:14:46.719Z,63.18
2022-09-17T11:17:50.268Z,62.97
2022-09-17T11:20:37.186Z,62.79
2022-09-17T11:23:41.108Z,63.13
2022-09-17T11:26:33.612Z,62.87
2022-09-17T11:29:27.263Z,62.98
2022-09-17T11:32:26.685Z,63.20
2022-09-17T11:35:09.536Z,63.36
2022-09-17T11:37:42.008Z,63.34
2022-09-17T11:40:36.877Z,63.36
2022-09-17T11:43:27.724Z,63.68
2022-09-17T11:46:02.420Z,62.88
2022-09-17T11:48:52.522Z,64.13
2022-09-17T11:51:32.037Z,63.68
2022-09-17T11:54:17.534Z,61.64
2022-09-17T11:56:47.766Z,61.48
2022-09-17T11:59:26.266Z,62.32
2022-09-17T12:01:54.720Z,62.87
2022-09-17T12:04:46.038Z,63.32
2022-09-17T12:07:15.347Z,64.53
2022-09-17T12:09:43.796Z,65.28
2022-09-17T12:12:47.650Z,66.02
2022-09-17T12:15:26.834Z,66.30
2022-09-17T12:18:31.027Z,66.93
2022-09-17T12:21:00.441Z,67.79
2022-09-17T12:23:36.377Z,67.83
2022-09-17T12:26:14.131Z,68.50
2022-09-17T12:29:15.994Z,67.94
2022-09-17T12:31:46.426Z,67.35
2022-09-17T12:34:48.008Z,65.58
2022-09-17T12:37:21.060Z,66.33
2022-09-17T12:40:29.153Z,63.48
2022-09-17T12:43:20.003Z,64.19
2022-09-17T12:46:25.390Z,63.71
2022-09-17T12:49:18.308Z,63.85
2022-09-17T12:51:55.559Z,64.88
2022-09-17T12:54:45.464Z,64.96
2022-09-17T12:57:30.953Z,65.82
2022-09-17T13:00:08.156Z,65.49
2022-09-17T13:02:45.280Z,64.71
2022-09-17T13:05:35.192Z,65.02
2022-09-17T13:08:26.825Z,63.61
2022-09-17T13:11:00.404Z,65.25
2022-09-17T13:13:52.832Z,64.50
2022-09-17T13:16:43.037Z,65.41
2022-09-17T13:19:36.250Z,63.17
2022-09-17T13:22:20.531Z,61.19
2022-09-17T13:25:00.998Z,61.93
2022-09-17T13:27:27.974Z,61.66
2022-09-17T13:29:54.406Z,61.06
2022-09-17T13:32:32.913Z,60.05
2022-09-17T13:35:22.305Z,61.18
2022-09-17T13:37:48.806Z,60.82
2022-09-17T13:40:25.909Z,60.26
2022-09-17T13:42:54.434Z,60.35
2022-09-17T13:45:23.208Z,61.74
2022-09-17T13:47:52.194Z,62.41
2022-09-17T13:50:30.505Z,61.06
2022-09-17T13:52:58.889Z,62.66
2022-09-17T13:55:36.141Z,61.07
2022-09-17T13:58:12.264Z,59.81
2022-09-17T14:00:48.107Z,59.19
2022-09-17T14:03:30.055Z,58.78
2022-09-17T14:06:05.776Z,59.87
2022-09-17T14:08:44.354Z,59.83
2022-09-17T14:11:22.878Z,59.34
2022-09-17T14:14:04.317Z,60.87
2022-09-17T14:16:30.778Z,61.02
2022-09-17T14:19:01.492Z,60.82
2022-09-17T14:21:34.843Z,59.70
2022-09-17T14:24:04.403Z,59.72
2022-09-17T14:27:14.786Z,59.74
2022-09-17T14:30:01.280Z,61.17
2022-09-17T14:32:30.076Z,59.62
2022-09-17T14:34:57.005Z,61.01
2022-09-17T14:37:24.231Z,60.89
2022-09-17T14:39:52.434Z,60.13
2022-09-17T14:42:27.539Z,59.06
2022-09-17T14:45:26.795Z,59.51
2022-09-17T14:48:19.276Z,57.18
2022-09-17T14:50:45.909Z,59.00
2022-09-17T14:53:17.679Z,58.96
2022-09-17T14:55:51.295Z,58.59
2022-09-17T14:58:37.533Z,57.37
2022-09-17T15:01:04.127Z,58.65
2022-09-17T15:03:30.614Z,58.42
2022-09-17T15:05:57.274Z,58.48
2022-09-17T15:08:28.087Z,57.65
2022-09-17T15:10:57.891Z,57.25
2022-09-17T15:13:50.761Z,56.84
2022-09-17T15:16:23.542Z,56.91
2022-09-17T15:18:55.892Z,56.71
2022-09-17T15:21:36.411Z,57.30
2022-09-17T15:24:43.449Z,57.17
2022-09-17T15:27:41.445Z,57.45
2022-09-17T15:30:15.730Z,57.77
2022-09-17T15:32:48.557Z,58.82
2022-09-17T15:35:15.401Z,58.40
2022-09-17T15:38:18.443Z,57.59
2022-09-17T15:40:40.590Z,57.67
2022-09-17T15:43:30.372Z,57.09
2022-09-17T15:45:57.877Z,57.81
2022-09-17T15:48:27.326Z,56.72
2022-09-17T15:50:59.827Z,54.76
2022-09-17T15:53:33.406Z,54.45
2022-09-17T15:56:16.425Z,55.75
2022-09-17T15:58:42.951Z,56.34
2022-09-17T16:01:14.915Z,56.27
2022-09-17T16:03:41.459Z,57.41
2022-09-17T16:06:20.061Z,56.84
2022-09-17T16:08:52.013Z,57.17
2022-09-17T16:11:31.797Z,56.60
2022-09-17T16:14:00.970Z,57.83
2022-09-17T16:16:35.399Z,58.00
2022-09-17T16:19:02.339Z,58.17
2022-09-17T16:21:29.041Z,58.35
2022-09-17T16:23:55.604Z,58.72
2022-09-17T16:26:27.961Z,57.96
2022-09-17T16:28:59.805Z,57.94
2022-09-17T16:31:26.331Z,58.62
2022-09-17T16:33:52.941Z,58.22
2022-09-17T16:36:19.455Z,58.32
2022-09-17T16:38:45.921Z,57.96
2022-09-17T16:41:12.467Z,58.33
2022-09-17T16:43:39.136Z,58.31
2022-09-17T16:46:10.677Z,57.84
2022-09-17T16:48:38.236Z,58.50
2022-09-17T16:51:09.104Z,58.04
2022-09-17T16:53:35.683Z,58.58
2022-09-17T16:56:06.516Z,57.17
2022-09-17T16:58:33.025Z,57.71
2022-09-17T17:00:59.584Z,57.63
2022-09-17T17:03:26.220Z,57.63
2022-09-17T17:05:52.721Z,57.57
2022-09-17T17:08:19.264Z,57.13
2022-09-17T17:10:49.709Z,56.09
2022-09-17T17:13:16.527Z,56.94
2022-09-17T17:15:43.056Z,56.89
2022-09-17T17:18:09.559Z,56.16
2022-09-17T17:20:36.401Z,57.05
2022-09-17T17:23:02.931Z,57.17
2022-09-17T17:25:30.671Z,57.33
2022-09-17T17:27:57.240Z,57.64
2022-09-17T17:30:23.900Z,57.90
2022-09-17T17:32:52.363Z,58.00
2022-09-17T17:35:20.275Z,58.34
2022-09-17T17:37:46.793Z,58.57
2022-09-17T17:40:13.344Z,58.84
2022-09-17T17:42:39.852Z,59.10
2022-09-17T17:45:07.180Z,59.35
2022-09-17T17:47:34.325Z,59.84
2022-09-17T17:50:00.857Z,60.04
2022-09-17T17:52:27.434Z,60.38
2022-09-17T17:54:53.971Z,60.86
2022-09-17T17:57:20.490Z,61.03
2022-09-17T17:59:46.975Z,61.40
2022-09-17T18:02:13.574Z,61.50
2022-09-17T18:04:40.185Z,61.60
2022-09-17T18:07:06.697Z,61.67
2022-09-17T18:09:33.882Z,61.50
2022-09-17T18:12:00.365Z,61.76
2022-09-17T18:14:26.909Z,61.73
2022-09-17T18:16:53.388Z,61.87
2022-09-17T18:19:19.938Z,61.74
2022-09-17T18:21:46.427Z,61.88
2022-09-17T18:24:12.932Z,61.95
2022-09-17T18:26:39.533Z,61.77
2022-09-17T18:29:08.154Z,61.96
2022-09-17T18:31:35.661Z,61.73
2022-09-17T18:34:09.667Z,61.76
2022-09-17T18:36:37.270Z,62.01
2022-09-17T18:39:33.177Z,61.68
2022-09-17T18:41:52.569Z,61.80
2022-09-17T18:44:19.166Z,61.56
2022-09-17T18:46:45.722Z,61.64
2022-09-17T18:49:12.302Z,61.64
2022-09-17T18:51:38.830Z,61.69
2022-09-17T18:54:05.385Z,61.75
2022-09-17T18:56:32.341Z,61.71
2022-09-17T18:59:03.272Z,61.79
2022-09-17T19:01:32.530Z,61.91
2022-09-17T19:03:59.774Z,62.00
2022-09-17T19:06:27.761Z,61.95
2022-09-17T19:08:58.935Z,61.90
2022-09-17T19:11:25.439Z,62.10
2022-09-17T19:13:51.921Z,62.34
2022-09-17T19:16:18.513Z,62.31
2022-09-17T19:18:45.109Z,62.50
2022-09-17T19:21:19.807Z,62.45
2022-09-17T19:23:48.663Z,62.63
2022-09-17T19:26:17.683Z,62.67
2022-09-17T19:28:44.729Z,62.94
2022-09-17T19:31:13.842Z,62.99
2022-09-17T19:33:40.645Z,63.24
2022-09-17T19:36:10.523Z,63.45
2022-09-17T19:38:37.958Z,63.40
2022-09-17T19:41:07.112Z,63.21
2022-09-17T19:43:33.710Z,63.25
2022-09-17T19:46:06.011Z,63.33
2022-09-17T19:48:33.789Z,63.42
2022-09-17T19:51:00.249Z,63.43
2022-09-17T19:53:26.735Z,63.37
2022-09-17T19:55:53.468Z,63.42
2022-09-17T19:58:20.409Z,63.37
2022-09-17T20:00:47.090Z,63.46
2022-09-17T20:03:13.647Z,63.54
2022-09-17T20:05:40.193Z,63.51
2022-09-17T20:08:06.737Z,63.57
2022-09-17T20:10:36.295Z,63.51
2022-09-17T20:13:03.429Z,63.82
2022-09-17T20:15:29.990Z,63.92
2022-09-17T20:17:56.586Z,63.71
2022-09-17T20:20:23.093Z,63.62
2022-09-17T20:22:51.557Z,63.60
2022-09-17T20:25:18.059Z,63.78
2022-09-17T20:27:44.577Z,63.93
2022-09-17T20:30:11.384Z,64.13
2022-09-17T20:32:37.852Z,64.40
2022-09-17T20:35:04.487Z,64.44
2022-09-17T20:38:12.308Z,64.44
2022-09-17T20:40:17.605Z,64.47
2022-09-17T20:42:44.122Z,64.51
2022-09-17T20:45:10.726Z,64.43
2022-09-17T20:47:37.195Z,64.38
2022-09-17T20:50:03.879Z,64.38
2022-09-17T20:52:30.336Z,64.46
2022-09-17T20:54:56.835Z,64.62
2022-09-17T20:57:23.465Z,64.72
2022-09-17T20:59:50.007Z,64.85
2022-09-17T21:02:16.862Z,64.90
2022-09-17T21:04:43.394Z,65.11
2022-09-17T21:07:09.840Z,65.13
2022-09-17T21:09:36.445Z,65.28
2022-09-17T21:12:03.009Z,65.55
2022-09-17T21:14:29.474Z,65.74
2022-09-17T21:16:55.959Z,65.91
2022-09-17T21:19:22.472Z,66.01
2022-09-17T21:21:48.943Z,66.14
2022-09-17T21:24:15.413Z,66.22
2022-09-17T21:26:41.939Z,66.45
2022-09-17T21:29:08.404Z,66.96
2022-09-17T21:31:36.318Z,67.07
2022-09-17T21:34:05.346Z,67.01
2022-09-17T21:36:35.797Z,67.37
2022-09-17T21:39:05.602Z,67.47
2022-09-17T21:41:32.650Z,67.36
2022-09-17T21:43:59.522Z,67.31
2022-09-17T21:46:28.742Z,67.59
2022-09-17T21:48:57.841Z,67.29
2022-09-17T21:51:27.317Z,67.71
2022-09-17T21:53:55.585Z,67.59
2022-09-17T21:56:22.732Z,67.60
2022-09-17T21:58:58.333Z,67.72
2022-09-17T22:01:28.247Z,67.68
2022-09-17T22:03:55.651Z,67.53
2022-09-17T22:06:27.348Z,66.98
2022-09-17T22:08:54.403Z,66.96
2022-09-17T22:11:26.195Z,67.04
2022-09-17T22:14:09.307Z,66.94
2022-09-17T22:16:38.772Z,66.94
2022-09-17T22:19:06.492Z,66.87
2022-09-17T22:21:36.858Z,66.98
2022-09-17T22:24:04.760Z,67.06
2022-09-17T22:26:34.084Z,67.01
2022-09-17T22:29:06.368Z,67.58
2022-09-17T22:31:33.166Z,67.55
2022-09-17T22:33:59.827Z,67.30
2022-09-17T22:36:28.458Z,67.42
2022-09-17T22:38:57.452Z,67.57
2022-09-17T22:41:31.936Z,67.33
2022-09-17T22:44:04.183Z,67.29
2022-09-17T22:46:40.758Z,67.50
2022-09-17T22:49:09.556Z,67.65
2022-09-17T22:51:36.700Z,67.77
2022-09-17T22:54:03.500Z,67.59
2022-09-17T22:56:30.378Z,67.61
2022-09-17T22:58:58.396Z,67.78
2022-09-17T23:01:31.051Z,67.68
2022-09-17T23:03:59.099Z,67.62
2022-09-17T23:06:28.828Z,67.83
2022-09-17T23:08:56.142Z,67.62
2022-09-17T23:11:30.021Z,67.69
2022-09-17T23:13:59.757Z,67.71
2022-09-17T23:16:26.322Z,67.76
2022-09-17T23:18:53.065Z,67.80
2022-09-17T23:21:20.293Z,67.90
2022-09-17T23:23:49.635Z,68.12
2022-09-17T23:26:25.474Z,68.50
2022-09-17T23:28:52.380Z,68.86
2022-09-17T23:31:25.817Z,69.02
2022-09-17T23:33:53.499Z,69.08
2022-09-17T23:36:31.747Z,69.03
2022-09-17T23:38:58.995Z,68.92
2022-09-17T23:41:40.041Z,68.94
2022-09-17T23:44:13.748Z,69.21
2022-09-17T23:46:41.730Z,69.42
2022-09-17T23:49:11.097Z,69.45
2022-09-17T23:51:37.591Z,69.35
2022-09-17T23:54:04.622Z,69.44
2022-09-17T23:56:31.155Z,69.49
2022-09-17T23:59:00.262Z,69.45
